createdAt,value
2022-12-15T00:00:39.612Z,96632.57
2022-12-15T00:03:45.508Z,96631.54
2022-12-15T00:06:32.234Z,96631.17
2022-12-15T00:09:20.721Z,96636.76
2022-12-15T00:12:07.634Z,96646.61
2022-12-15T00:14:53.892Z,96652.19
2022-12-15T00:17:40.463Z,96653.79
2022-12-15T00:20:27.605Z,96659.40
2022-12-15T00:23:14.119Z,96661.71
2022-12-15T00:26:02.806Z,96665.67
2022-12-15T00:28:49.223Z,96661.64
2022-12-15T00:31:35.656Z,96661.97
2022-12-15T00:34:22.189Z,96660.02
2022-12-15T00:37:09.149Z,96658.85
2022-12-15T00:39:37.251Z,96661.26
2022-12-15T00:42:05.300Z,96666.84
2022-12-15T00:44:33.356Z,96672.16
2022-12-15T00:47:01.670Z,96668.61
2022-12-15T00:49:49.857Z,96668.45
2022-12-15T00:52:39.551Z,96664.41
2022-12-15T00:55:26.423Z,96662.35
2022-12-15T00:58:12.692Z,96666.52
2022-12-15T01:00:59.509Z,96664.06
2022-12-15T01:03:46.154Z,96664.34
2022-12-15T01:06:35.647Z,96666.52
2022-12-15T01:09:24.181Z,96663.34
2022-12-15T01:12:11.792Z,96659.77
2022-12-15T01:14:58.777Z,96659.17
2022-12-15T01:17:45.297Z,96656.15
2022-12-15T01:20:23.372Z,96655.60
2022-12-15T01:22:54.894Z,96662.89
2022-12-15T01:25:24.925Z,96666.83
2022-12-15T01:27:52.938Z,96662.79
2022-12-15T01:30:23.986Z,96654.04
2022-12-15T01:32:54.949Z,96655.23
2022-12-15T01:35:22.948Z,96652.95
2022-12-15T01:37:50.892Z,96649.46
2022-12-15T01:40:39.449Z,96647.31
2022-12-15T01:43:23.448Z,96652.83
2022-12-15T01:46:10.604Z,96663.89
2022-12-15T01:48:47.075Z,96665.61
2022-12-15T01:51:24.352Z,96675.90
2022-12-15T01:54:14.144Z,96681.70
2022-12-15T01:56:46.538Z,96681.79
2022-12-15T01:59:21.176Z,96688.06
2022-12-15T02:01:49.722Z,96683.25
2022-12-15T02:04:21.609Z,96682.61
2022-12-15T02:06:50.700Z,96682.31
2022-12-15T02:09:21.123Z,96677.20
2022-12-15T02:12:01.099Z,96666.44
2022-12-15T02:14:45.574Z,96669.08
2022-12-15T02:17:23.073Z,96666.55
2022-12-15T02:20:06.125Z,96666.63
2022-12-15T02:22:55.339Z,96677.20
2022-12-15T02:25:44.662Z,96675.30
2022-12-15T02:28:16.176Z,96681.34
2022-12-15T02:31:08.732Z,96677.36
2022-12-15T02:33:44.684Z,96681.48
2022-12-15T02:36:23.248Z,96686.46
2022-12-15T02:38:51.508Z,96687.48
2022-12-15T02:41:53.096Z,96686.17
2022-12-15T02:44:29.464Z,96679.80
2022-12-15T02:47:10.101Z,96679.61
2022-12-15T02:49:49.818Z,96678.37
2022-12-15T02:52:39.980Z,96673.57
2022-12-15T02:55:58.802Z,96679.70
2022-12-15T02:58:53.876Z,96685.63
2022-12-15T03:01:24.723Z,96684.27
2022-12-15T03:03:53.765Z,96684.67
2022-12-15T03:06:24.393Z,96682.59
2022-12-15T03:08:52.632Z,96685.06
2022-12-15T03:11:20.607Z,96687.93
2022-12-15T03:13:49.825Z,96694.21
2022-12-15T03:16:17.974Z,96694.29
2022-12-15T03:18:46.386Z,96698.86
2022-12-15T03:21:14.253Z,96699.38
2022-12-15T03:23:42.273Z,96698.52
2022-12-15T03:26:10.265Z,96696.80
2022-12-15T03:28:38.329Z,96701.21
2022-12-15T03:31:06.354Z,96704.25
2022-12-15T03:33:35.098Z,96714.20
2022-12-15T03:36:03.649Z,96719.38
2022-12-15T03:38:31.584Z,96716.77
2022-12-15T03:40:59.596Z,96725.23
2022-12-15T03:43:27.623Z,96723.73
2022-12-15T03:45:55.837Z,96717.98
2022-12-15T03:48:24.441Z,96722.84
2022-12-15T03:50:52.489Z,96725.20
2022-12-15T03:53:21.014Z,96730.68
2022-12-15T03:55:48.993Z,96734.39
2022-12-15T03:58:16.994Z,96743.41
2022-12-15T04:00:45.156Z,96743.30
2022-12-15T04:03:13.168Z,96740.27
2022-12-15T04:05:41.390Z,96739.27
2022-12-15T04:08:09.327Z,96741.02
2022-12-15T04:10:37.255Z,96737.88
2022-12-15T04:13:10.963Z,96744.84
2022-12-15T04:15:40.360Z,96741.41
2022-12-15T04:18:10.678Z,96744.38
2022-12-15T04:20:40.248Z,96738.16
2022-12-15T04:23:08.585Z,96733.77
2022-12-15T04:25:56.284Z,96731.65
2022-12-15T04:28:42.899Z,96733.02
2022-12-15T04:31:42.386Z,96736.11
2022-12-15T04:34:35.172Z,96742.06
2022-12-15T04:37:22.029Z,96754.47
2022-12-15T04:40:10.792Z,96744.57
2022-12-15T04:43:02.288Z,96738.79
2022-12-15T04:45:49.028Z,96735.17
2022-12-15T04:48:35.637Z,96735.08
2022-12-15T04:51:24.036Z,96747.98
2022-12-15T04:54:10.844Z,96743.84
2022-12-15T04:56:57.219Z,96746.18
2022-12-15T04:59:43.686Z,96752.38
2022-12-15T05:02:30.029Z,96758.63
2022-12-15T05:05:17.291Z,96763.90
2022-12-15T05:08:04.920Z,96774.98
2022-12-15T05:10:51.816Z,96772.91
2022-12-15T05:13:39.447Z,96770.96
2022-12-15T05:16:26.318Z,96770.54
2022-12-15T05:19:12.693Z,96775.64
2022-12-15T05:21:59.594Z,96778.15
2022-12-15T05:24:46.221Z,96780.94
2022-12-15T05:27:32.975Z,96792.06
2022-12-15T05:30:20.569Z,96804.39
2022-12-15T05:32:49.856Z,96814.02
2022-12-15T05:35:18.357Z,96822.98
2022-12-15T05:37:47.251Z,96814.59
2022-12-15T05:40:17.412Z,96804.05
2022-12-15T05:42:50.286Z,96796.27
2022-12-15T05:45:18.443Z,96803.92
2022-12-15T05:47:52.065Z,96810.60
2022-12-15T05:50:22.156Z,96823.35
2022-12-15T05:52:50.436Z,96819.00
2022-12-15T05:55:19.521Z,96816.14
2022-12-15T05:57:52.657Z,96814.52
2022-12-15T06:00:22.108Z,96817.18
2022-12-15T06:02:51.110Z,96813.85
2022-12-15T06:05:19.211Z,96820.71
2022-12-15T06:07:47.402Z,96834.23
2022-12-15T06:10:16.233Z,96846.68
2022-12-15T06:12:44.240Z,96855.88
2022-12-15T06:15:12.302Z,96858.98
2022-12-15T06:17:40.438Z,96854.08
2022-12-15T06:20:09.659Z,96857.95
2022-12-15T06:22:38.466Z,96868.21
2022-12-15T06:25:08.090Z,96872.42
2022-12-15T06:27:38.361Z,96882.18
2022-12-15T06:30:06.903Z,96892.13
2022-12-15T06:32:36.774Z,96899.27
2022-12-15T06:35:05.503Z,96909.80
2022-12-15T06:37:33.474Z,96911.51
2022-12-15T06:40:01.631Z,96916.20
2022-12-15T06:42:30.205Z,96915.77
2022-12-15T06:44:58.358Z,96915.35
2022-12-15T06:47:26.392Z,96919.89
2022-12-15T06:49:55.986Z,96928.58
2022-12-15T06:52:23.942Z,96931.82
2022-12-15T06:54:52.056Z,96927.95
2022-12-15T06:57:20.342Z,96925.27
2022-12-15T06:59:49.253Z,96927.54
2022-12-15T07:02:19.195Z,96926.67
2022-12-15T07:04:50.086Z,96932.93
2022-12-15T07:07:18.149Z,96934.09
2022-12-15T07:09:47.836Z,96942.98
2022-12-15T07:12:20.399Z,96950.40
2022-12-15T07:14:53.388Z,96960.91
2022-12-15T07:17:22.377Z,96965.89
2022-12-15T07:19:51.583Z,96966.30
2022-12-15T07:22:21.091Z,96969.89
2022-12-15T07:24:51.246Z,96976.26
2022-12-15T07:27:19.317Z,96981.74
2022-12-15T07:29:49.695Z,96989.98
2022-12-15T07:32:18.356Z,96999.45
2022-12-15T07:34:46.771Z,97004.54
2022-12-15T07:37:18.875Z,97012.98
2022-12-15T07:39:47.074Z,97013.35
2022-12-15T07:42:14.964Z,97014.94
2022-12-15T07:44:44.431Z,97022.95
2022-12-15T07:47:12.980Z,97033.23
2022-12-15T07:49:41.812Z,97027.42
2022-12-15T07:52:09.972Z,97025.83
2022-12-15T07:54:39.490Z,97036.30
2022-12-15T07:57:07.692Z,97028.92
2022-12-15T07:59:36.268Z,97022.98
2022-12-15T08:02:06.509Z,97025.95
2022-12-15T08:04:34.758Z,97025.41
2022-12-15T08:07:04.616Z,97017.19
2022-12-15T08:09:33.367Z,97027.80
2022-12-15T08:12:02.344Z,97029.45
2022-12-15T08:14:32.561Z,97028.77
2022-12-15T08:17:01.045Z,97029.45
2022-12-15T08:19:30.828Z,97039.13
2022-12-15T08:21:58.873Z,97044.74
2022-12-15T08:24:27.198Z,97044.81
2022-12-15T08:26:55.913Z,97051.60
2022-12-15T08:29:50.191Z,97054.60
2022-12-15T08:32:13.064Z,97062.22
2022-12-15T08:34:42.395Z,97065.98
2022-12-15T08:37:11.082Z,97070.02
2022-12-15T08:39:40.108Z,97066.33
2022-12-15T08:42:09.051Z,97072.11
2022-12-15T08:44:48.770Z,97072.31
2022-12-15T08:47:50.618Z,97075.14
2022-12-15T08:50:27.036Z,97073.10
2022-12-15T08:56:04.535Z,97087.11
2022-12-15T08:58:34.375Z,97090.52
2022-12-15T09:01:06.826Z,97093.75
2022-12-15T09:03:36.627Z,97093.68
2022-12-15T09:06:06.822Z,97097.40
2022-12-15T09:08:35.164Z,97090.80
2022-12-15T09:11:07.677Z,97084.87
2022-12-15T09:13:39.981Z,97085.35
2022-12-15T09:16:16.091Z,97080.02
2022-12-15T09:18:47.828Z,97071.95
2022-12-15T09:21:17.532Z,97077.41
2022-12-15T09:23:52.070Z,97081.14
2022-12-15T09:26:23.490Z,97085.29
2022-12-15T09:28:56.449Z,97085.04
2022-12-15T09:31:30.959Z,97088.27
2022-12-15T09:34:00.697Z,97088.29
2022-12-15T09:36:30.914Z,97086.82
2022-12-15T09:38:59.744Z,97085.06
2022-12-15T09:41:31.813Z,97081.95
2022-12-15T09:44:15.941Z,97080.30
2022-12-15T09:46:51.189Z,97078.55
2022-12-15T09:49:30.889Z,97073.23
2022-12-15T09:52:10.914Z,97077.17
2022-12-15T09:54:42.318Z,97083.73
2022-12-15T09:57:25.697Z,97081.33
2022-12-15T10:00:08.429Z,97079.00
2022-12-15T10:02:55.837Z,97074.91
2022-12-15T10:06:06.124Z,97077.14
2022-12-15T10:08:30.467Z,97088.85
2022-12-15T10:11:24.604Z,97095.11
2022-12-15T10:14:15.196Z,97098.10
2022-12-15T10:17:07.025Z,97099.39
2022-12-15T10:20:25.510Z,97095.42
2022-12-15T10:23:12.433Z,97094.23
2022-12-15T10:25:47.286Z,97099.16
2022-12-15T10:28:37.981Z,97109.27
2022-12-15T10:31:06.309Z,97110.88
2022-12-15T10:33:47.057Z,97110.16
2022-12-15T10:36:17.299Z,97113.64
2022-12-15T10:41:36.296Z,97128.02
2022-12-15T10:44:30.279Z,97134.40
2022-12-15T10:47:09.690Z,97124.13
2022-12-15T10:49:38.202Z,97128.80
2022-12-15T10:52:18.997Z,97122.13
2022-12-15T10:54:50.023Z,97113.53
2022-12-15T10:57:27.918Z,97120.02
2022-12-15T11:00:19.938Z,97122.34
2022-12-15T11:02:48.570Z,97116.73
2022-12-15T11:05:20.912Z,97121.95
2022-12-15T11:07:51.892Z,97117.71
2022-12-15T11:10:23.401Z,97110.50
2022-12-15T11:13:13.714Z,97101.45
2022-12-15T11:15:50.724Z,97100.78
2022-12-15T11:18:59.823Z,97107.64
2022-12-15T11:21:32.966Z,97109.55
2022-12-15T11:24:29.752Z,97114.02
2022-12-15T11:27:07.126Z,97119.52
2022-12-15T11:30:16.617Z,97118.30
2022-12-15T11:32:48.893Z,97121.86
2022-12-15T11:35:23.553Z,97129.91
2022-12-15T11:38:04.491Z,97131.66
2022-12-15T11:40:43.728Z,97131.67
2022-12-15T11:43:15.434Z,97134.98
2022-12-15T11:46:02.404Z,97134.45
2022-12-15T11:49:40.991Z,97133.73
2022-12-15T11:52:55.945Z,97143.05
2022-12-15T11:55:41.185Z,97153.30
2022-12-15T11:58:42.707Z,97162.45
2022-12-15T12:01:58.797Z,97166.81
2022-12-15T12:05:13.845Z,97169.36
2022-12-15T12:07:54.233Z,97169.21
2022-12-15T12:10:39.370Z,97169.31
2022-12-15T12:13:33.419Z,97174.52
2022-12-15T12:16:16.922Z,97175.39
2022-12-15T12:18:50.675Z,97176.21
2022-12-15T12:21:26.878Z,97173.77
2022-12-15T12:24:04.715Z,97166.84
2022-12-15T12:26:40.600Z,97167.48
2022-12-15T12:29:33.312Z,97165.16
2022-12-15T12:32:05.410Z,97171.05
2022-12-15T12:34:37.978Z,97182.02
2022-12-15T12:37:44.661Z,97188.43
2022-12-15T12:40:19.704Z,97192.16
2022-12-15T12:42:57.536Z,97194.92
2022-12-15T12:45:32.554Z,97194.82
2022-12-15T12:48:14.151Z,97204.43
2022-12-15T12:50:43.591Z,97209.14
2022-12-15T12:53:35.070Z,97204.94
2022-12-15T12:56:04.128Z,97204.48
2022-12-15T12:58:42.426Z,97193.74
2022-12-15T13:01:10.807Z,97193.75
2022-12-15T13:03:40.656Z,97185.60
2022-12-15T13:06:36.710Z,97184.77
2022-12-15T13:09:24.257Z,97182.60
2022-12-15T13:12:03.191Z,97184.00
2022-12-15T13:14:40.607Z,97188.40
2022-12-15T13:17:32.366Z,97191.98
2022-12-15T13:20:16.266Z,97188.01
2022-12-15T13:22:46.954Z,97182.89
2022-12-15T13:25:42.555Z,97178.73
2022-12-15T13:28:28.088Z,97181.73
2022-12-15T13:31:25.689Z,97185.58
2022-12-15T13:34:11.502Z,97187.45
2022-12-15T13:36:40.334Z,97188.15
2022-12-15T13:39:12.127Z,97196.86
2022-12-15T13:42:15.315Z,97202.14
2022-12-15T13:44:44.389Z,97208.17
2022-12-15T13:47:32.055Z,97213.84
2022-12-15T13:50:14.754Z,97216.19
2022-12-15T13:55:51.142Z,97215.39
2022-12-15T13:58:21.817Z,97212.34
2022-12-15T14:00:56.374Z,97213.66
2022-12-15T14:03:24.705Z,97217.55
2022-12-15T14:05:59.422Z,97217.73
2022-12-15T14:08:39.888Z,97221.59
2022-12-15T14:11:51.939Z,97222.27
2022-12-15T14:14:37.016Z,97226.48
2022-12-15T14:17:09.115Z,97219.54
2022-12-15T14:19:39.899Z,97219.16
2022-12-15T14:22:30.681Z,97218.58
2022-12-15T14:25:14.484Z,97218.17
2022-12-15T14:27:42.697Z,97224.06
2022-12-15T14:30:24.867Z,97227.05
2022-12-15T14:32:56.635Z,97234.67
2022-12-15T14:35:42.447Z,97231.65
2022-12-15T14:38:26.336Z,97226.30
2022-12-15T14:40:57.769Z,97231.48
2022-12-15T14:43:32.518Z,97229.33
2022-12-15T14:46:12.693Z,97226.11
2022-12-15T14:48:49.668Z,97232.59
2022-12-15T14:51:19.906Z,97240.45
2022-12-15T14:56:40.327Z,97244.48
2022-12-15T14:59:20.182Z,97255.54
2022-12-15T15:01:58.536Z,97261.44
2022-12-15T15:03:06.719Z,97118.23
2022-12-15T15:03:14.540Z,97240.05
2022-12-15T15:04:34.199Z,97262.73
2022-12-15T15:07:06.271Z,97269.39
2022-12-15T15:09:41.784Z,97272.25
2022-12-15T15:12:17.402Z,97272.18
2022-12-15T15:14:53.214Z,97285.71
2022-12-15T15:17:37.121Z,97300.77
2022-12-15T15:20:17.748Z,97302.14
2022-12-15T15:22:48.282Z,97302.34
2022-12-15T15:25:41.414Z,97309.60
2022-12-15T15:28:10.020Z,97314.69
2022-12-15T15:30:49.838Z,97309.27
2022-12-15T15:33:24.780Z,97301.17
2022-12-15T15:36:00.458Z,97291.46
2022-12-15T15:38:35.602Z,97286.74
2022-12-15T15:41:19.861Z,97290.14
2022-12-15T15:43:48.741Z,97290.86
2022-12-15T15:46:20.203Z,97292.82
2022-12-15T15:49:09.497Z,97288.15
2022-12-15T15:51:38.348Z,97290.25
2022-12-15T15:54:14.005Z,97290.45
2022-12-15T15:56:42.471Z,97294.98
2022-12-15T15:59:17.511Z,97299.59
2022-12-15T16:01:49.958Z,97308.02
2022-12-15T16:04:18.687Z,97322.95
2022-12-15T16:06:48.060Z,97314.09
2022-12-15T16:09:17.063Z,97323.98
2022-12-15T16:11:46.806Z,97327.46
2022-12-15T16:14:17.083Z,97324.40
2022-12-15T16:16:45.286Z,97323.30
2022-12-15T16:19:13.544Z,97319.73
2022-12-15T16:21:42.868Z,97308.77
2022-12-15T16:24:16.116Z,97306.34
2022-12-15T16:26:48.743Z,97300.71
2022-12-15T16:29:20.037Z,97301.52
2022-12-15T16:31:48.400Z,97301.08
2022-12-15T16:34:20.509Z,97309.71
2022-12-15T16:36:48.831Z,97320.51
2022-12-15T16:39:29.209Z,97327.41
2022-12-15T16:41:57.722Z,97326.65
2022-12-15T16:44:29.391Z,97327.90
2022-12-15T16:46:59.173Z,97330.91
2022-12-15T16:49:35.056Z,97333.15
2022-12-15T16:52:06.348Z,97330.20
2022-12-15T16:54:36.700Z,97329.77
2022-12-15T16:57:06.765Z,97324.90
2022-12-15T16:59:35.945Z,97320.52
2022-12-15T17:02:29.472Z,97321.53
2022-12-15T17:04:57.771Z,97324.64
2022-12-15T17:07:27.888Z,97328.44
2022-12-15T17:09:57.167Z,97330.23
2022-12-15T17:12:26.928Z,97331.08
2022-12-15T17:14:54.942Z,97335.98
2022-12-15T17:17:25.677Z,97336.93
2022-12-15T17:20:28.082Z,97332.13
2022-12-15T17:22:46.340Z,97321.89
2022-12-15T17:25:33.275Z,97319.00
2022-12-15T17:28:19.385Z,97318.23
2022-12-15T17:30:53.249Z,97320.30
2022-12-15T17:33:25.840Z,97324.23
2022-12-15T17:36:03.773Z,97325.89
2022-12-15T17:38:31.806Z,97331.58
2022-12-15T17:41:01.625Z,97331.45
2022-12-15T17:43:35.700Z,97335.67
2022-12-15T17:46:04.241Z,97340.75
2022-12-15T17:48:33.371Z,97341.40
2022-12-15T17:51:01.905Z,97340.15
2022-12-15T17:53:30.871Z,97335.20
2022-12-15T17:55:59.144Z,97332.42
2022-12-15T17:58:27.323Z,97329.07
2022-12-15T18:00:56.571Z,97321.10
2022-12-15T18:03:24.757Z,97322.81
2022-12-15T18:05:53.812Z,97325.00
2022-12-15T18:08:29.901Z,97328.63
2022-12-15T18:10:58.260Z,97330.98
2022-12-15T18:13:34.829Z,97334.68
2022-12-15T18:16:07.652Z,97333.58
2022-12-15T18:18:36.296Z,97324.43
2022-12-15T18:21:14.080Z,97313.70
2022-12-15T18:23:43.492Z,97306.14
2022-12-15T18:26:15.122Z,97309.02
2022-12-15T18:28:44.083Z,97312.42
2022-12-15T18:31:26.271Z,97323.31
2022-12-15T18:34:00.914Z,97331.05
2022-12-15T18:36:30.953Z,97335.27
2022-12-15T18:38:59.181Z,97330.85
2022-12-15T18:41:27.955Z,97327.06
2022-12-15T18:44:00.792Z,97319.55
2022-12-15T18:46:28.875Z,97316.55
2022-12-15T18:48:58.859Z,97320.77
2022-12-15T18:51:26.959Z,97326.45
2022-12-15T18:53:55.016Z,97328.30
2022-12-15T18:56:23.858Z,97323.89
2022-12-15T18:58:51.991Z,97325.01
2022-12-15T19:01:20.096Z,97333.17
2022-12-15T19:03:49.100Z,97341.73
2022-12-15T19:06:34.856Z,97339.98
2022-12-15T19:09:05.551Z,97338.05
2022-12-15T19:11:35.924Z,97332.27
2022-12-15T19:14:05.394Z,97326.64
2022-12-15T19:16:59.570Z,97325.17
2022-12-15T19:19:46.954Z,97328.48
2022-12-15T19:22:28.085Z,97324.98
2022-12-15T19:24:57.134Z,97319.73
2022-12-15T19:27:26.571Z,97315.14
2022-12-15T19:29:57.465Z,97322.36
2022-12-15T19:32:26.896Z,97327.98
2022-12-15T19:34:57.488Z,97328.78
2022-12-15T19:37:29.005Z,97329.86
2022-12-15T19:40:00.078Z,97329.80
2022-12-15T19:42:33.649Z,97328.66
2022-12-15T19:45:13.955Z,97325.19
2022-12-15T19:47:41.922Z,97319.63
2022-12-15T19:50:18.700Z,97315.77
2022-12-15T19:52:50.482Z,97319.46
2022-12-15T19:55:23.741Z,97323.58
2022-12-15T19:57:51.737Z,97318.88
2022-12-15T20:00:23.050Z,97303.96
2022-12-15T20:02:54.700Z,97293.08
2022-12-15T20:05:25.145Z,97301.62
2022-12-15T20:07:54.008Z,97297.89
2022-12-15T20:10:31.836Z,97290.95
2022-12-15T20:13:03.349Z,97288.44
2022-12-15T20:15:31.998Z,97289.90
2022-12-15T20:18:01.215Z,97296.88
2022-12-15T20:20:31.200Z,97291.55
2022-12-15T20:23:04.274Z,97282.71
2022-12-15T20:25:35.677Z,97285.31
2022-12-15T20:28:10.407Z,97297.23
2022-12-15T20:30:38.379Z,97294.66
2022-12-15T20:33:06.843Z,97292.61
2022-12-15T20:35:37.474Z,97304.33
2022-12-15T20:38:28.163Z,97302.89
2022-12-15T20:40:56.682Z,97303.72
2022-12-15T20:43:26.636Z,97296.21
2022-12-15T20:46:25.497Z,97284.09
2022-12-15T20:48:55.377Z,97284.59
2022-12-15T20:51:31.263Z,97291.50
2022-12-15T20:54:02.543Z,97280.98
2022-12-15T20:56:30.877Z,97277.00
2022-12-15T20:58:59.824Z,97268.46
2022-12-15T21:01:32.956Z,97267.38
2022-12-15T21:04:04.478Z,97264.40
2022-12-15T21:06:32.533Z,97262.52
2022-12-15T21:09:01.136Z,97267.73
2022-12-15T21:11:33.462Z,97270.11
2022-12-15T21:14:06.715Z,97268.29
2022-12-15T21:16:34.803Z,97268.69
2022-12-15T21:19:20.960Z,97262.56
2022-12-15T21:21:54.955Z,97256.13
2022-12-15T21:24:27.226Z,97263.65
2022-12-15T21:26:55.799Z,97272.48
2022-12-15T21:29:26.191Z,97280.58
2022-12-15T21:31:54.697Z,97284.47
2022-12-15T21:34:22.973Z,97275.49
2022-12-15T21:36:55.100Z,97273.44
2022-12-15T21:39:29.394Z,97266.42
2022-12-15T21:42:04.536Z,97265.68
2022-12-15T21:44:32.570Z,97266.51
2022-12-15T21:47:01.052Z,97259.73
2022-12-15T21:49:31.522Z,97256.91
2022-12-15T21:52:01.112Z,97263.27
2022-12-15T21:54:36.307Z,97263.66
2022-12-15T21:57:04.245Z,97262.55
2022-12-15T21:59:33.233Z,97261.73
2022-12-15T22:02:02.491Z,97257.73
2022-12-15T22:04:35.505Z,97256.03
2022-12-15T22:07:06.148Z,97250.77
2022-12-15T22:09:34.107Z,97239.22
2022-12-15T22:12:02.941Z,97233.93
2022-12-15T22:14:34.255Z,97233.26
2022-12-15T22:17:16.254Z,97240.98
2022-12-15T22:19:44.660Z,97247.85
2022-12-15T22:22:14.033Z,97255.73
2022-12-15T22:24:42.397Z,97251.18
2022-12-15T22:27:22.047Z,97247.65
2022-12-15T22:29:50.549Z,97245.47
2022-12-15T22:32:20.770Z,97236.97
2022-12-15T22:34:48.832Z,97233.11
2022-12-15T22:37:36.813Z,97230.83
2022-12-15T22:40:05.245Z,97222.16
2022-12-15T22:42:33.448Z,97222.84
2022-12-15T22:45:02.415Z,97224.13
2022-12-15T22:47:36.382Z,97222.41
2022-12-15T22:50:06.181Z,97231.40
2022-12-15T22:52:34.217Z,97241.13
2022-12-15T22:55:02.275Z,97242.39
2022-12-15T22:57:30.356Z,97241.86
2022-12-15T23:00:07.983Z,97245.02
2022-12-15T23:02:40.155Z,97245.27
2022-12-15T23:05:10.080Z,97225.02
2022-12-15T23:07:38.383Z,97216.92
2022-12-15T23:10:25.824Z,97204.92
2022-12-15T23:12:54.756Z,97194.23
2022-12-15T23:15:43.429Z,97195.23
2022-12-15T23:18:13.760Z,97195.23
2022-12-15T23:20:42.625Z,97183.22
2022-12-15T23:23:10.846Z,97182.14
2022-12-15T23:25:39.003Z,97183.70
2022-12-15T23:28:06.992Z,97181.71
2022-12-15T23:30:35.600Z,97188.14
2022-12-15T23:33:03.795Z,97192.27
2022-12-15T23:35:31.655Z,97190.29
2022-12-15T23:37:59.680Z,97194.39
2022-12-15T23:40:27.711Z,97199.39
2022-12-15T23:42:55.683Z,97198.30
2022-12-15T23:45:24.028Z,97193.48
2022-12-15T23:47:52.018Z,97181.68
2022-12-15T23:50:22.215Z,97182.88
2022-12-15T23:52:51.947Z,97178.29
2022-12-15T23:55:20.485Z,97168.79
2022-12-15T23:57:48.400Z,97166.13
